createdAt,value
2022-10-12T00:01:42.200Z,7.30
2022-10-12T00:04:31.678Z,7.30
2022-10-12T00:07:19.548Z,7.40
2022-10-12T00:10:07.866Z,7.30
2022-10-12T00:12:55.817Z,7.30
2022-10-12T00:15:43.712Z,7.30
2022-10-12T00:18:31.586Z,7.20
2022-10-12T00:21:21.490Z,7.20
2022-10-12T00:24:10.648Z,7.10
2022-10-12T00:26:58.515Z,7.00
2022-10-12T00:29:46.396Z,6.90
2022-10-12T00:32:34.266Z,6.80
2022-10-12T00:35:22.155Z,6.80
2022-10-12T00:38:11.898Z,6.80
2022-10-12T00:40:59.856Z,6.80
2022-10-12T00:43:50.179Z,6.70
2022-10-12T00:46:43.240Z,6.70
2022-10-12T00:49:31.171Z,6.60
2022-10-12T00:52:21.103Z,6.60
2022-10-12T00:55:11.248Z,6.60
2022-10-12T00:57:59.819Z,6.60
2022-10-12T01:00:47.950Z,6.60
2022-10-12T01:03:36.285Z,6.80
2022-10-12T01:06:24.159Z,6.80
2022-10-12T01:09:12.036Z,6.90
2022-10-12T01:12:01.382Z,6.90
2022-10-12T01:14:49.351Z,6.80
2022-10-12T01:17:41.659Z,6.80
2022-10-12T01:20:35.922Z,6.80
2022-10-12T01:23:43.468Z,6.80
2022-10-12T01:26:40.253Z,6.70
2022-10-12T01:29:39.846Z,6.70
2022-10-12T01:32:31.764Z,6.60
2022-10-12T01:35:22.781Z,6.60
2022-10-12T01:38:15.360Z,6.50
2022-10-12T01:41:06.505Z,6.50
2022-10-12T01:43:54.372Z,6.50
2022-10-12T01:46:46.108Z,6.40
2022-10-12T01:49:35.671Z,6.40
2022-10-12T01:52:28.563Z,6.40
2022-10-12T01:55:27.537Z,6.50
2022-10-12T01:58:27.596Z,6.50
2022-10-12T02:01:21.419Z,6.60
2022-10-12T02:04:13.394Z,6.70
2022-10-12T02:07:05.071Z,6.70
2022-10-12T02:09:54.018Z,6.70
2022-10-12T02:12:43.057Z,6.80
2022-10-12T02:15:32.447Z,6.70
2022-10-12T02:18:21.285Z,6.60
2022-10-12T02:21:10.598Z,6.40
2022-10-12T02:24:00.693Z,6.30
2022-10-12T02:26:49.726Z,6.30
2022-10-12T02:29:39.502Z,6.20
2022-10-12T02:32:29.956Z,6.10
2022-10-12T02:35:22.037Z,6.20
2022-10-12T02:38:12.578Z,6.10
2022-10-12T02:41:03.859Z,6.10
2022-10-12T02:43:53.257Z,6.10
2022-10-12T02:46:42.312Z,6.10
2022-10-12T02:49:31.050Z,6.00
2022-10-12T02:52:19.234Z,6.00
2022-10-12T02:55:08.360Z,6.00
2022-10-12T02:57:57.947Z,6.00
2022-10-12T03:00:46.774Z,6.00
2022-10-12T03:03:34.860Z,6.00
2022-10-12T03:06:23.886Z,6.20
2022-10-12T03:09:12.079Z,6.30
2022-10-12T03:12:00.100Z,6.40
2022-10-12T03:14:49.766Z,6.40
2022-10-12T03:17:37.990Z,6.50
2022-10-12T03:20:26.610Z,6.40
2022-10-12T03:23:14.705Z,6.40
2022-10-12T03:26:02.822Z,6.30
2022-10-12T03:28:51.082Z,6.30
2022-10-12T03:31:40.560Z,6.30
2022-10-12T03:34:28.611Z,6.30
2022-10-12T03:37:16.607Z,6.30
2022-10-12T03:40:05.088Z,6.20
2022-10-12T03:42:53.110Z,6.20
2022-10-12T03:45:41.262Z,6.20
2022-10-12T03:48:30.655Z,6.10
2022-10-12T03:51:18.721Z,6.00
2022-10-12T03:54:06.996Z,6.00
2022-10-12T03:56:55.041Z,6.00
2022-10-12T03:59:43.276Z,6.00
2022-10-12T04:02:31.334Z,6.00
2022-10-12T04:05:20.773Z,6.00
2022-10-12T04:08:09.317Z,6.00
2022-10-12T04:10:57.365Z,6.00
2022-10-12T04:13:45.411Z,5.90
2022-10-12T04:16:33.440Z,5.90
2022-10-12T04:19:21.683Z,5.80
2022-10-12T04:22:11.114Z,5.80
2022-10-12T04:24:59.216Z,5.80
2022-10-12T04:27:47.265Z,5.90
2022-10-12T04:30:35.337Z,6.00
2022-10-12T04:33:23.471Z,6.00
2022-10-12T04:36:12.029Z,6.00
2022-10-12T04:39:01.938Z,6.00
2022-10-12T04:41:50.291Z,6.00
2022-10-12T04:44:38.320Z,5.90
2022-10-12T04:47:26.554Z,5.90
2022-10-12T04:50:14.998Z,5.90
2022-10-12T04:53:03.162Z,6.00
2022-10-12T04:55:52.565Z,6.00
2022-10-12T04:58:40.617Z,6.00
2022-10-12T05:01:28.761Z,6.00
2022-10-12T05:04:16.891Z,6.00
2022-10-12T05:07:04.990Z,5.90
2022-10-12T05:09:53.654Z,5.90
2022-10-12T05:12:43.707Z,5.80
2022-10-12T05:15:31.796Z,5.90
2022-10-12T05:18:19.814Z,5.90
2022-10-12T05:21:07.925Z,5.80
2022-10-12T05:23:56.259Z,5.80
2022-10-12T05:26:44.322Z,5.80
2022-10-12T05:29:33.717Z,5.80
2022-10-12T05:32:22.082Z,5.70
2022-10-12T05:35:11.371Z,5.70
2022-10-12T05:37:59.392Z,5.60
2022-10-12T05:40:47.447Z,5.50
2022-10-12T05:43:35.544Z,5.50
2022-10-12T05:46:25.030Z,5.50
2022-10-12T05:49:13.081Z,5.50
2022-10-12T05:52:01.118Z,5.40
2022-10-12T05:54:49.605Z,5.40
2022-10-12T05:57:37.930Z,5.40
2022-10-12T06:00:26.080Z,5.50
2022-10-12T06:03:18.450Z,5.50
2022-10-12T06:06:08.332Z,5.50
2022-10-12T06:08:56.317Z,5.50
2022-10-12T06:11:44.358Z,5.50
2022-10-12T06:14:32.462Z,5.50
2022-10-12T06:17:20.496Z,5.60
2022-10-12T06:20:11.120Z,5.60
2022-10-12T06:22:59.245Z,5.70
2022-10-12T06:25:48.256Z,5.70
2022-10-12T06:28:36.320Z,5.70
2022-10-12T06:31:24.507Z,5.80
2022-10-12T06:34:12.520Z,5.90
2022-10-12T06:37:02.333Z,5.90
2022-10-12T06:39:50.525Z,6.00
2022-10-12T06:42:38.749Z,6.10
2022-10-12T06:45:27.033Z,6.10
2022-10-12T06:48:18.552Z,6.20
2022-10-12T06:51:07.573Z,6.30
2022-10-12T06:53:57.556Z,6.30
2022-10-12T06:56:45.691Z,6.30
2022-10-12T06:59:33.832Z,6.40
2022-10-12T07:02:21.879Z,6.40
2022-10-12T07:05:10.557Z,6.50
2022-10-12T07:07:58.904Z,6.60
2022-10-12T07:10:48.297Z,6.60
2022-10-12T07:13:37.091Z,6.70
2022-10-12T07:16:25.260Z,6.80
2022-10-12T07:19:13.327Z,6.90
2022-10-12T07:22:02.018Z,7.00
2022-10-12T07:24:50.434Z,7.10
2022-10-12T07:27:40.551Z,7.10
2022-10-12T07:30:28.876Z,7.20
2022-10-12T07:33:17.111Z,7.20
2022-10-12T07:36:15.631Z,7.10
2022-10-12T07:39:07.735Z,7.00
2022-10-12T07:41:56.256Z,7.00
2022-10-12T07:44:45.658Z,7.00
2022-10-12T07:47:33.758Z,7.00
2022-10-12T07:50:21.990Z,7.10
2022-10-12T07:53:10.146Z,7.20
2022-10-12T07:56:01.772Z,7.30
2022-10-12T07:58:51.207Z,7.40
2022-10-12T08:01:40.764Z,7.50
2022-10-12T08:04:28.810Z,7.50
2022-10-12T08:07:17.008Z,7.60
2022-10-12T08:10:05.663Z,7.70
2022-10-12T08:12:53.833Z,7.80
2022-10-12T08:15:41.944Z,8.00
2022-10-12T08:18:31.473Z,8.10
2022-10-12T08:21:19.996Z,8.30
2022-10-12T08:24:08.760Z,8.40
2022-10-12T08:27:01.180Z,8.50
2022-10-12T08:29:49.686Z,8.70
2022-10-12T08:32:37.861Z,8.80
2022-10-12T08:35:27.381Z,9.00
2022-10-12T08:38:15.650Z,9.20
2022-10-12T08:41:08.063Z,9.30
2022-10-12T08:44:03.571Z,9.30
2022-10-12T08:46:55.894Z,9.40
2022-10-12T08:49:48.866Z,9.50
2022-10-12T08:52:42.494Z,9.60
2022-10-12T08:55:35.264Z,9.70
2022-10-12T08:58:24.294Z,9.80
2022-10-12T09:01:16.758Z,9.90
2022-10-12T09:04:09.195Z,10.00
2022-10-12T09:07:00.672Z,10.20
2022-10-12T09:10:04.332Z,10.30
2022-10-12T09:12:56.492Z,10.30
2022-10-12T09:15:48.641Z,10.40
2022-10-12T09:18:40.873Z,10.50
2022-10-12T09:21:30.990Z,10.50
2022-10-12T09:24:20.416Z,10.60
2022-10-12T09:27:14.010Z,10.70
2022-10-12T09:30:03.353Z,10.80
2022-10-12T09:32:57.035Z,11.00
2022-10-12T09:35:46.213Z,11.10
2022-10-12T09:38:34.056Z,11.20
2022-10-12T09:41:24.041Z,11.40
2022-10-12T09:44:16.484Z,11.50
2022-10-12T09:47:06.202Z,11.60
2022-10-12T09:49:57.633Z,11.70
2022-10-12T09:52:46.091Z,11.90
2022-10-12T09:55:34.028Z,12.00
2022-10-12T09:58:22.662Z,12.10
2022-10-12T10:01:21.464Z,12.30
2022-10-12T10:04:15.473Z,12.40
2022-10-12T10:07:13.831Z,12.60
2022-10-12T10:10:08.167Z,12.80
2022-10-12T10:12:58.315Z,13.00
2022-10-12T10:15:48.961Z,13.10
2022-10-12T10:18:39.353Z,13.30
2022-10-12T10:21:28.979Z,13.40
2022-10-12T10:24:24.609Z,13.50
2022-10-12T10:27:27.413Z,13.60
2022-10-12T10:30:40.530Z,13.70
2022-10-12T10:33:29.678Z,13.80
2022-10-12T10:36:22.302Z,14.00
2022-10-12T10:39:17.425Z,14.10
2022-10-12T10:42:12.277Z,14.20
2022-10-12T10:45:01.431Z,14.30
2022-10-12T10:47:50.179Z,14.30
2022-10-12T10:50:39.016Z,14.30
2022-10-12T10:53:31.942Z,14.30
2022-10-12T10:56:22.359Z,14.40
2022-10-12T10:59:16.167Z,14.40
2022-10-12T11:02:09.597Z,14.40
2022-10-12T11:05:01.158Z,14.50
2022-10-12T11:07:51.223Z,14.50
2022-10-12T11:10:43.474Z,14.60
2022-10-12T11:13:33.416Z,14.70
2022-10-12T11:16:26.602Z,14.90
2022-10-12T11:19:27.396Z,15.10
2022-10-12T11:22:17.991Z,15.30
2022-10-12T11:25:10.931Z,15.40
2022-10-12T11:28:00.411Z,15.50
2022-10-12T11:30:50.525Z,15.60
2022-10-12T11:33:40.520Z,15.80
2022-10-12T11:36:30.016Z,15.90
2022-10-12T11:39:22.719Z,16.00
2022-10-12T11:42:21.767Z,16.10
2022-10-12T11:45:18.774Z,16.00
2022-10-12T11:48:10.354Z,16.00
2022-10-12T11:51:03.880Z,16.00
2022-10-12T11:53:57.431Z,16.00
2022-10-12T11:56:47.948Z,16.10
2022-10-12T11:59:39.682Z,16.20
2022-10-12T12:02:31.025Z,16.20
2022-10-12T12:05:18.986Z,16.30
2022-10-12T12:08:06.909Z,16.40
2022-10-12T12:11:05.817Z,16.50
2022-10-12T12:14:16.144Z,16.70
2022-10-12T12:17:21.820Z,16.60
2022-10-12T12:20:24.536Z,16.70
2022-10-12T12:23:19.905Z,16.70
2022-10-12T12:26:17.588Z,16.70
2022-10-12T12:29:10.470Z,16.70
2022-10-12T12:31:59.935Z,16.70
2022-10-12T12:35:00.003Z,16.60
2022-10-12T12:37:49.372Z,16.50
2022-10-12T12:40:37.328Z,16.50
2022-10-12T12:43:52.419Z,16.50
2022-10-12T12:47:26.407Z,16.50
2022-10-12T12:50:32.438Z,16.60
2022-10-12T12:53:21.719Z,16.70
2022-10-12T12:56:17.537Z,16.70
2022-10-12T12:59:14.873Z,16.70
2022-10-12T13:02:15.893Z,16.80
2022-10-12T13:05:25.337Z,16.80
2022-10-12T13:08:18.834Z,16.80
2022-10-12T13:11:19.550Z,16.70
2022-10-12T13:14:13.264Z,16.60
2022-10-12T13:20:20.627Z,16.80
2022-10-12T13:23:12.866Z,16.90
2022-10-12T13:26:04.015Z,17.10
2022-10-12T13:28:52.805Z,17.20
2022-10-12T13:31:42.875Z,17.50
2022-10-12T13:34:35.910Z,17.60
2022-10-12T13:37:30.912Z,17.80
2022-10-12T13:40:37.052Z,18.00
2022-10-12T13:43:29.645Z,18.00
2022-10-12T13:46:32.359Z,18.20
2022-10-12T13:49:21.492Z,18.30
2022-10-12T13:52:18.274Z,18.40
2022-10-12T13:55:16.288Z,18.50
2022-10-12T13:58:04.555Z,18.60
2022-10-12T14:00:53.893Z,18.60
2022-10-12T14:03:43.084Z,18.80
2022-10-12T14:06:32.765Z,18.80
2022-10-12T14:09:22.026Z,18.80
2022-10-12T14:12:10.764Z,18.80
2022-10-12T14:14:59.206Z,18.70
2022-10-12T14:17:50.868Z,18.70
2022-10-12T14:20:39.425Z,18.70
2022-10-12T14:23:27.421Z,18.80
2022-10-12T14:26:30.215Z,18.80
2022-10-12T14:29:28.943Z,18.80
2022-10-12T14:32:38.377Z,18.90
2022-10-12T14:35:28.771Z,19.10
2022-10-12T14:38:37.828Z,19.10
2022-10-12T14:41:32.760Z,19.10
2022-10-12T14:44:21.731Z,19.10
2022-10-12T14:47:17.369Z,19.20
2022-10-12T14:50:08.366Z,19.20
2022-10-12T14:52:58.682Z,19.30
2022-10-12T14:55:48.570Z,19.30
2022-10-12T14:58:41.851Z,19.20
2022-10-12T15:01:29.747Z,18.90
2022-10-12T15:04:17.623Z,18.70
2022-10-12T15:07:06.757Z,18.60
2022-10-12T15:09:56.129Z,18.70
2022-10-12T15:12:44.800Z,18.60
2022-10-12T15:15:34.648Z,18.60
2022-10-12T15:18:22.656Z,18.40
2022-10-12T15:21:10.807Z,18.10
2022-10-12T15:23:58.828Z,18.10
2022-10-12T15:26:48.121Z,17.90
2022-10-12T15:29:35.993Z,17.80
2022-10-12T15:32:24.019Z,17.60
2022-10-12T15:35:22.716Z,17.60
2022-10-12T15:38:10.737Z,17.60
2022-10-12T15:40:59.025Z,17.60
2022-10-12T15:43:48.467Z,17.50
2022-10-12T15:46:36.379Z,17.50
2022-10-12T15:49:24.827Z,17.50
2022-10-12T15:52:12.716Z,17.40
2022-10-12T15:55:00.562Z,17.30
2022-10-12T15:57:48.480Z,17.20
2022-10-12T16:00:37.726Z,17.20
2022-10-12T16:03:31.125Z,17.10
2022-10-12T16:06:19.326Z,17.10
2022-10-12T16:09:07.360Z,17.00
2022-10-12T16:11:55.440Z,17.00
2022-10-12T16:14:43.446Z,16.90
2022-10-12T16:17:32.717Z,16.80
2022-10-12T16:20:20.543Z,16.70
2022-10-12T16:23:09.716Z,16.60
2022-10-12T16:25:57.712Z,16.50
2022-10-12T16:28:45.692Z,16.40
2022-10-12T16:31:33.974Z,16.40
2022-10-12T16:34:23.184Z,16.30
2022-10-12T16:37:11.077Z,16.20
2022-10-12T16:39:58.918Z,16.10
2022-10-12T16:42:53.115Z,16.00
2022-10-12T16:45:41.013Z,16.00
2022-10-12T16:48:28.864Z,16.00
2022-10-12T16:51:18.120Z,15.90
2022-10-12T16:54:05.961Z,15.80
2022-10-12T16:56:53.854Z,15.80
2022-10-12T16:59:41.977Z,15.70
2022-10-12T17:02:30.524Z,15.70
2022-10-12T17:05:18.453Z,15.60
2022-10-12T17:08:12.542Z,15.40
2022-10-12T17:11:05.938Z,15.30
2022-10-12T17:13:55.035Z,15.20
2022-10-12T17:16:57.213Z,15.10
2022-10-12T17:19:45.258Z,15.10
2022-10-12T17:22:33.201Z,14.90
2022-10-12T17:25:22.459Z,14.90
2022-10-12T17:28:12.386Z,15.00
2022-10-12T17:31:07.905Z,15.00
2022-10-12T17:33:58.657Z,15.00
2022-10-12T17:36:46.705Z,15.00
2022-10-12T17:39:35.375Z,14.90
2022-10-12T17:42:24.904Z,14.80
2022-10-12T17:45:12.814Z,14.80
2022-10-12T17:48:00.648Z,14.60
2022-10-12T17:50:48.530Z,14.50
2022-10-12T17:53:36.476Z,14.50
2022-10-12T17:56:24.324Z,14.40
2022-10-12T17:59:14.548Z,14.40
2022-10-12T18:02:02.455Z,14.40
2022-10-12T18:04:50.334Z,14.40
2022-10-12T18:07:40.672Z,14.30
2022-10-12T18:10:28.808Z,14.20
2022-10-12T18:13:16.822Z,14.00
2022-10-12T18:16:09.257Z,14.00
2022-10-12T18:18:58.758Z,13.90
2022-10-12T18:21:46.632Z,13.90
2022-10-12T18:24:34.476Z,13.80
2022-10-12T18:27:22.455Z,13.70
2022-10-12T18:30:10.742Z,13.70
2022-10-12T18:33:00.367Z,13.70
2022-10-12T18:35:48.256Z,13.60
2022-10-12T18:38:36.139Z,13.60
2022-10-12T18:41:25.805Z,13.60
2022-10-12T18:44:15.052Z,13.60
2022-10-12T18:47:03.006Z,13.50
2022-10-12T18:49:53.665Z,13.50
2022-10-12T18:52:41.697Z,13.50
2022-10-12T18:55:29.633Z,13.60
2022-10-12T18:58:17.469Z,13.60
2022-10-12T19:01:09.304Z,13.70
2022-10-12T19:03:58.092Z,13.70
2022-10-12T19:06:47.559Z,13.50
2022-10-12T19:09:35.469Z,13.60
2022-10-12T19:12:23.346Z,13.70
2022-10-12T19:15:11.435Z,13.80
2022-10-12T19:17:59.307Z,13.50
2022-10-12T19:20:47.181Z,13.30
2022-10-12T19:23:37.143Z,13.00
2022-10-12T19:26:26.706Z,12.90
2022-10-12T19:29:14.709Z,12.80
2022-10-12T19:32:02.700Z,12.60
2022-10-12T19:34:52.803Z,12.60
2022-10-12T19:37:40.758Z,12.50
2022-10-12T19:40:29.967Z,12.50
2022-10-12T19:43:17.880Z,12.40
2022-10-12T19:46:06.466Z,12.50
2022-10-12T19:48:55.327Z,12.50
2022-10-12T19:51:43.719Z,12.50
2022-10-12T19:54:35.946Z,12.50
2022-10-12T19:57:25.569Z,12.50
2022-10-12T20:00:14.455Z,12.70
2022-10-12T20:03:02.378Z,12.70
2022-10-12T20:05:50.422Z,12.70
2022-10-12T20:08:38.680Z,12.60
2022-10-12T20:11:26.637Z,12.60
2022-10-12T20:14:16.179Z,12.70
2022-10-12T20:17:04.067Z,12.70
2022-10-12T20:19:51.905Z,12.60
2022-10-12T20:22:41.000Z,12.50
2022-10-12T20:25:28.868Z,12.50
2022-10-12T20:28:16.875Z,12.40
2022-10-12T20:31:06.577Z,12.60
2022-10-12T20:33:54.731Z,12.50
2022-10-12T20:36:45.332Z,12.50
2022-10-12T20:39:33.922Z,12.40
2022-10-12T20:42:22.346Z,12.30
2022-10-12T20:45:14.418Z,12.20
2022-10-12T20:48:03.797Z,12.10
2022-10-12T20:50:51.958Z,12.30
2022-10-12T20:53:39.778Z,12.20
2022-10-12T20:56:27.736Z,12.00
2022-10-12T20:59:15.808Z,11.90
2022-10-12T21:02:03.698Z,11.80
2022-10-12T21:04:52.954Z,11.70
2022-10-12T21:07:40.873Z,11.60
2022-10-12T21:10:28.752Z,11.50
2022-10-12T21:13:16.649Z,11.40
2022-10-12T21:16:04.763Z,11.30
2022-10-12T21:18:54.121Z,11.30
2022-10-12T21:21:44.193Z,11.30
2022-10-12T21:24:32.749Z,11.30
2022-10-12T21:27:21.279Z,11.20
2022-10-12T21:30:09.996Z,11.10
2022-10-12T21:32:57.849Z,11.10
2022-10-12T21:35:45.843Z,11.10
2022-10-12T21:38:35.313Z,11.10
2022-10-12T21:41:24.648Z,11.10
2022-10-12T21:44:12.922Z,11.20
2022-10-12T21:47:00.841Z,11.20
2022-10-12T21:49:49.082Z,11.30
2022-10-12T21:52:37.034Z,11.30
2022-10-12T21:55:26.359Z,11.40
2022-10-12T21:58:14.233Z,11.40
2022-10-12T22:01:06.224Z,11.30
2022-10-12T22:03:54.537Z,11.30
2022-10-12T22:06:43.243Z,11.30
2022-10-12T22:09:31.121Z,11.30
2022-10-12T22:12:20.587Z,11.30
2022-10-12T22:15:09.173Z,11.30
2022-10-12T22:17:57.038Z,11.20
2022-10-12T22:20:44.883Z,11.20
2022-10-12T22:23:32.763Z,11.10
2022-10-12T22:26:21.651Z,11.00
2022-10-12T22:29:11.288Z,11.00
2022-10-12T22:31:59.196Z,10.90
2022-10-12T22:34:47.046Z,10.80
2022-10-12T22:37:34.933Z,10.80
2022-10-12T22:40:22.773Z,10.80
2022-10-12T22:43:10.625Z,10.60
2022-10-12T22:46:00.159Z,10.70
2022-10-12T22:48:50.557Z,10.60
2022-10-12T22:51:39.349Z,10.50
2022-10-12T22:54:27.209Z,10.50
2022-10-12T22:57:15.140Z,10.50
2022-10-12T23:00:03.034Z,10.50
2022-10-12T23:02:52.249Z,10.50
2022-10-12T23:05:40.090Z,10.50
2022-10-12T23:08:28.682Z,10.50
2022-10-12T23:11:17.812Z,10.40
2022-10-12T23:14:05.680Z,10.40
2022-10-12T23:16:53.578Z,10.30
2022-10-12T23:19:42.865Z,10.20
2022-10-12T23:22:30.734Z,10.20
2022-10-12T23:25:18.674Z,10.20
2022-10-12T23:28:06.534Z,10.30
2022-10-12T23:30:54.387Z,10.40
2022-10-12T23:33:42.494Z,10.40
2022-10-12T23:36:32.032Z,10.30
2022-10-12T23:39:19.896Z,10.20
2022-10-12T23:42:07.759Z,10.30
2022-10-12T23:44:55.610Z,10.50
2022-10-12T23:47:43.541Z,10.50
2022-10-12T23:50:31.472Z,10.50
2022-10-12T23:53:21.181Z,10.50
2022-10-12T23:56:09.052Z,10.30
2022-10-12T23:58:56.918Z,10.10
